Time;durP1;ratioP1;P1;durP2;ratioP2;P2;SDS_P1;SDS_P2;PMS_P1;PMS_P2;Temp;Humidity;BMP_temperature;BMP_pressure;BME280_temperature;BME280_humidity;BME280_pressure;Samples;Min_cycle;Max_cycle;Signal;HPM_P1;HPM_P2
2022/11/10 00:00:39;;;;;;;13.55;5.70;;;11.60;99.90;;;;;;5106647;27;20020;-70
2022/11/10 00:03:06;;;;;;;14.68;5.30;;;11.60;99.90;;;;;;5108434;28;20074;-70
2022/11/10 00:05:34;;;;;;;13.52;4.93;;;11.60;99.90;;;;;;5110060;28;20143;-69
2022/11/10 00:08:08;;;;;;;18.02;5.82;;;11.60;99.90;;;;;;5105541;28;20024;-70
2022/11/10 00:10:55;;;;;;;15.95;5.15;;;11.60;99.90;;;;;;5108254;28;20049;-70
2022/11/10 00:13:22;;;;;;;14.52;5.10;;;11.70;99.90;;;;;;5088343;28;20026;-70
2022/11/10 00:18:32;;;;;;;16.10;4.60;;;11.60;99.90;;;;;;5106956;27;20051;-70
2022/11/10 00:21:06;;;;;;;12.13;4.68;;;11.60;99.90;;;;;;5087986;28;20020;-70
2022/11/10 00:23:32;;;;;;;14.23;5.25;;;11.60;99.90;;;;;;5108632;27;20028;-69
2022/11/10 00:25:58;;;;;;;14.75;5.32;;;11.50;99.90;;;;;;5098527;28;20033;-70
2022/11/10 00:28:24;;;;;;;14.75;4.50;;;11.50;99.90;;;;;;5112318;28;20185;-70
2022/11/10 00:30:50;;;;;;;16.10;4.63;;;11.50;99.90;;;;;;5101498;28;20106;-69
2022/11/10 00:33:15;;;;;;;12.63;4.75;;;11.50;99.90;;;;;;5090442;28;20106;-70
2022/11/10 00:35:41;;;;;;;18.25;4.82;;;11.50;99.90;;;;;;5107908;28;20023;-69
2022/11/10 00:38:07;;;;;;;18.33;4.50;;;11.60;99.90;;;;;;5105100;28;20024;-70
2022/11/10 00:40:32;;;;;;;15.57;4.97;;;11.50;99.90;;;;;;5109102;28;20430;-70
2022/11/10 00:42:58;;;;;;;13.88;4.00;;;11.50;99.90;;;;;;5111385;28;20022;-69
2022/11/10 00:45:23;;;;;;;14.68;4.18;;;11.40;99.90;;;;;;5105016;28;20069;-69
2022/11/10 00:47:49;;;;;;;10.48;4.15;;;11.40;99.90;;;;;;5104850;28;20122;-70
2022/11/10 00:50:14;;;;;;;9.15;3.80;;;11.40;99.90;;;;;;5089919;28;20039;-70
2022/11/10 00:52:40;;;;;;;14.55;4.50;;;11.40;99.90;;;;;;5107606;28;20016;-69
2022/11/10 00:55:06;;;;;;;7.97;3.55;;;11.50;99.90;;;;;;5108719;28;20032;-70
2022/11/10 00:57:32;;;;;;;14.48;4.28;;;11.40;99.90;;;;;;5091665;28;20031;-70
2022/11/10 00:59:57;;;;;;;13.25;4.20;;;11.40;99.90;;;;;;5089555;28;20011;-70
2022/11/10 01:02:23;;;;;;;11.75;3.95;;;11.40;99.90;;;;;;5106946;28;20031;-69
2022/11/10 01:04:49;;;;;;;14.45;3.80;;;11.30;99.90;;;;;;5108625;28;20023;-70
2022/11/10 01:07:15;;;;;;;15.13;3.80;;;11.40;99.90;;;;;;5104272;28;20027;-70
2022/11/10 01:09:40;;;;;;;18.17;4.57;;;11.40;99.90;;;;;;5109196;28;20031;-69
2022/11/10 01:12:06;;;;;;;14.23;3.97;;;11.40;99.90;;;;;;5109005;28;20091;-69
2022/11/10 01:14:31;;;;;;;14.35;3.53;;;11.40;99.90;;;;;;5110614;28;20118;-70
2022/11/10 01:16:57;;;;;;;17.23;4.05;;;11.40;99.90;;;;;;5104469;28;20024;-69
2022/11/10 01:19:23;;;;;;;21.88;4.13;;;11.30;99.90;;;;;;5104060;28;20036;-69
2022/11/10 01:21:52;;;;;;;15.82;4.25;;;11.30;99.90;;;;;;5108090;28;22045;-69
2022/11/10 01:24:19;;;;;;;15.95;4.32;;;11.30;99.90;;;;;;5103458;27;20035;-69
2022/11/10 01:26:45;;;;;;;16.95;4.30;;;11.30;99.90;;;;;;5105354;28;20027;-69
2022/11/10 01:29:11;;;;;;;24.73;4.38;;;11.30;99.90;;;;;;5105980;28;20567;-69
2022/11/10 01:31:36;;;;;;;14.57;4.72;;;11.30;99.90;;;;;;5104597;28;20024;-70
2022/11/10 01:34:02;;;;;;;15.27;3.33;;;11.30;99.90;;;;;;5104134;28;20473;-69
2022/11/10 01:36:28;;;;;;;23.90;4.20;;;11.30;99.90;;;;;;5104499;27;20032;-70
2022/11/10 01:38:53;;;;;;;20.98;3.65;;;11.30;99.90;;;;;;5104173;28;20076;-69
2022/11/10 01:41:19;;;;;;;13.02;3.60;;;11.30;99.90;;;;;;5105415;28;20110;-70
2022/11/10 01:43:44;;;;;;;11.30;3.75;;;11.30;99.90;;;;;;5103883;28;20024;-69
2022/11/10 01:46:12;;;;;;;18.02;4.03;;;11.30;99.90;;;;;;5107990;28;20051;-70
2022/11/10 01:48:49;;;;;;;15.85;3.38;;;11.30;99.90;;;;;;5107043;28;20071;-69
2022/11/10 01:51:37;;;;;;;12.68;3.47;;;11.10;99.90;;;;;;5104746;28;20020;-69
2022/11/10 01:54:08;;;;;;;12.38;3.25;;;11.20;99.90;;;;;;5106116;28;20028;-69
2022/11/10 01:56:42;;;;;;;16.17;3.67;;;11.10;99.90;;;;;;5107411;28;20038;-70
2022/11/10 01:59:12;;;;;;;17.38;3.47;;;11.10;99.90;;;;;;5090580;28;20399;-69
2022/11/10 02:01:38;;;;;;;13.38;3.95;;;11.10;99.90;;;;;;5099819;28;20028;-69
2022/11/10 02:04:08;;;;;;;12.52;3.72;;;11.10;99.90;;;;;;5102700;28;20020;-69
2022/11/10 02:06:38;;;;;;;16.58;3.92;;;11.20;99.90;;;;;;5106621;28;20475;-69
2022/11/10 02:09:04;;;;;;;18.02;3.85;;;11.10;99.90;;;;;;5105045;28;20035;-70
2022/11/10 02:11:31;;;;;;;14.23;3.97;;;11.10;99.90;;;;;;5105033;28;20024;-70
2022/11/10 02:13:58;;;;;;;11.43;3.30;;;11.10;99.90;;;;;;5105380;28;20516;-69
2022/11/10 02:16:24;;;;;;;16.13;3.58;;;11.10;99.90;;;;;;5107965;28;20041;-69
2022/11/10 02:18:50;;;;;;;14.50;3.83;;;11.10;99.90;;;;;;5110532;28;20036;-69
2022/11/10 02:21:16;;;;;;;24.17;4.18;;;11.10;99.90;;;;;;5106640;28;20032;-69
2022/11/10 02:23:52;;;;;;;13.25;3.17;;;11.10;99.90;;;;;;5101604;28;20035;-69
2022/11/10 02:26:23;;;;;;;15.65;3.53;;;11.10;99.90;;;;;;5105808;28;20016;-70
2022/11/10 02:28:49;;;;;;;17.13;3.67;;;11.10;99.90;;;;;;5106462;28;20536;-70
2022/11/10 02:31:15;;;;;;;14.10;3.65;;;11.10;99.90;;;;;;5111847;28;20051;-69
2022/11/10 02:33:40;;;;;;;16.80;3.85;;;11.10;99.90;;;;;;5087005;28;20536;-69
2022/11/10 02:36:06;;;;;;;11.35;3.58;;;11.10;99.90;;;;;;5097746;28;20030;-70
2022/11/10 02:38:33;;;;;;;16.85;3.72;;;11.00;99.90;;;;;;5106085;28;20026;-69
2022/11/10 02:40:58;;;;;;;15.15;4.05;;;11.00;99.90;;;;;;5096696;28;20027;-70
2022/11/10 02:43:24;;;;;;;15.70;3.90;;;11.00;99.90;;;;;;5106674;28;20020;-69
2022/11/10 02:45:49;;;;;;;18.30;3.60;;;10.90;99.90;;;;;;5105066;28;21460;-70
2022/11/10 02:48:15;;;;;;;17.45;3.55;;;11.00;99.90;;;;;;5106280;28;20059;-70
2022/11/10 02:50:41;;;;;;;18.40;3.42;;;11.00;99.90;;;;;;5112334;28;20055;-70
2022/11/10 02:53:07;;;;;;;13.52;3.65;;;11.00;99.90;;;;;;5105263;28;20103;-70
2022/11/10 02:55:33;;;;;;;13.75;3.58;;;11.00;99.90;;;;;;5112563;28;20067;-69
2022/11/10 02:57:59;;;;;;;14.43;3.45;;;11.00;99.90;;;;;;5105791;28;20077;-70
2022/11/10 03:00:25;;;;;;;12.07;3.55;;;11.00;99.90;;;;;;5103501;28;20077;-70
2022/11/10 03:03:01;;;;;;;16.98;3.45;;;10.90;99.90;;;;;;5103659;28;20051;-70
2022/11/10 03:05:30;;;;;;;17.30;3.97;;;10.90;99.90;;;;;;5109729;28;20023;-69
2022/11/10 03:07:58;;;;;;;19.90;4.10;;;10.90;99.90;;;;;;5105429;28;20792;-70
2022/11/10 03:10:25;;;;;;;17.00;3.17;;;11.00;99.90;;;;;;5112100;28;20038;-70
2022/11/10 03:12:59;;;;;;;13.82;3.60;;;11.00;99.90;;;;;;5102017;28;20020;-70
2022/11/10 03:15:25;;;;;;;18.58;3.55;;;11.00;99.90;;;;;;5111344;28;20027;-70
2022/11/10 03:17:51;;;;;;;18.67;4.13;;;11.00;99.90;;;;;;5103989;28;20028;-70
2022/11/10 03:20:17;;;;;;;12.93;3.47;;;11.00;99.90;;;;;;5113475;28;20157;-70
2022/11/10 03:22:43;;;;;;;17.50;3.63;;;11.00;99.90;;;;;;5112710;28;20027;-70
2022/11/10 03:25:09;;;;;;;12.00;3.30;;;10.90;99.90;;;;;;5096616;28;20028;-69
2022/11/10 03:27:35;;;;;;;18.15;3.53;;;10.90;99.90;;;;;;5101437;28;20023;-70
2022/11/10 03:30:01;;;;;;;20.73;4.05;;;10.80;99.90;;;;;;5108364;28;20395;-69
2022/11/10 03:32:26;;;;;;;18.35;3.80;;;10.90;99.90;;;;;;5104237;28;20031;-70
2022/11/10 03:34:52;;;;;;;17.13;3.55;;;11.00;99.90;;;;;;5108599;28;20038;-70
2022/11/10 03:37:18;;;;;;;12.02;3.47;;;10.90;99.90;;;;;;5104326;27;20503;-69
2022/11/10 03:39:43;;;;;;;18.77;4.15;;;10.90;99.90;;;;;;5104607;28;20020;-70
2022/11/10 03:42:09;;;;;;;15.80;3.88;;;10.90;99.90;;;;;;5110447;28;20046;-70
2022/11/10 03:44:35;;;;;;;13.65;4.10;;;11.00;99.90;;;;;;5108931;28;20107;-69
2022/11/10 03:47:02;;;;;;;19.42;3.92;;;10.90;99.90;;;;;;5102540;28;20483;-70
2022/11/10 03:49:29;;;;;;;18.42;3.63;;;10.90;99.90;;;;;;5108634;28;20034;-69
2022/11/10 03:51:54;;;;;;;20.42;3.75;;;10.90;99.90;;;;;;5103125;28;20097;-70
2022/11/10 03:54:20;;;;;;;14.57;3.70;;;10.90;99.90;;;;;;5106715;28;20048;-70
2022/11/10 03:56:46;;;;;;;12.52;3.60;;;10.80;99.90;;;;;;5109683;28;20016;-69
2022/11/10 03:59:12;;;;;;;16.92;4.20;;;10.80;99.90;;;;;;5103755;28;20132;-70
2022/11/10 04:01:37;;;;;;;17.33;3.80;;;10.80;99.90;;;;;;5104134;28;20028;-70
2022/11/10 04:04:03;;;;;;;15.88;4.38;;;10.70;99.90;;;;;;5113100;28;20422;-70
2022/11/10 04:09:13;;;;;;;18.50;3.28;;;10.70;99.90;;;;;;5110025;28;20045;-70
2022/11/10 04:17:08;;;;;;;14.52;3.28;;;10.70;99.90;;;;;;5110846;28;20088;-69
2022/11/10 04:19:34;;;;;;;14.55;3.40;;;10.70;99.90;;;;;;5102064;28;20489;-72
2022/11/10 04:22:00;;;;;;;21.65;4.40;;;10.70;99.90;;;;;;5106287;28;20035;-69
2022/11/10 04:24:26;;;;;;;19.58;3.78;;;10.70;99.90;;;;;;5106266;27;20020;-69
2022/11/10 04:26:51;;;;;;;20.95;4.43;;;10.70;99.90;;;;;;5106918;28;20051;-70
2022/11/10 04:29:18;;;;;;;16.42;3.30;;;10.70;99.90;;;;;;5107884;28;20165;-69
2022/11/10 04:31:44;;;;;;;20.88;4.32;;;10.70;99.90;;;;;;5101690;28;20183;-70
2022/11/10 04:34:12;;;;;;;17.25;3.80;;;10.60;99.90;;;;;;5112469;28;20091;-70
2022/11/10 04:36:40;;;;;;;19.85;4.35;;;10.60;99.90;;;;;;5102487;28;20652;-70
2022/11/10 04:39:07;;;;;;;16.75;3.92;;;10.60;99.90;;;;;;5102785;28;20030;-70
2022/11/10 04:41:33;;;;;;;17.25;4.03;;;10.70;99.90;;;;;;5110870;28;20019;-70
2022/11/10 04:44:00;;;;;;;15.88;3.60;;;10.70;99.90;;;;;;5104166;28;20032;-70
2022/11/10 04:46:39;;;;;;;17.48;4.03;;;10.60;99.90;;;;;;5107674;28;20019;-70
2022/11/10 04:49:06;;;;;;;13.68;3.42;;;10.70;99.90;;;;;;5103092;28;20048;-70
2022/11/10 04:51:37;;;;;;;16.65;3.92;;;10.70;99.90;;;;;;5102642;28;20080;-70
2022/11/10 04:54:04;;;;;;;17.17;4.53;;;10.70;99.90;;;;;;5102471;28;20472;-69
2022/11/10 04:56:30;;;;;;;19.33;3.38;;;10.70;99.90;;;;;;5108956;28;20031;-71
2022/11/10 04:58:56;;;;;;;17.52;4.13;;;10.60;99.90;;;;;;5112490;28;20031;-70
2022/11/10 05:01:24;;;;;;;17.08;3.88;;;10.60;99.90;;;;;;5107676;28;20034;-69
2022/11/10 05:03:50;;;;;;;21.83;4.35;;;10.70;99.90;;;;;;5088581;28;20457;-70
2022/11/10 05:06:17;;;;;;;20.23;4.38;;;10.70;99.90;;;;;;5103467;28;20563;-70
2022/11/10 05:08:43;;;;;;;20.75;4.25;;;10.70;99.90;;;;;;5106713;28;20040;-70
2022/11/10 05:11:10;;;;;;;18.02;3.88;;;10.70;99.90;;;;;;5106451;28;20483;-69
2022/11/10 05:13:35;;;;;;;18.85;4.22;;;10.70;99.90;;;;;;5106245;28;20046;-70
2022/11/10 05:16:02;;;;;;;20.13;4.00;;;10.70;99.90;;;;;;5100417;28;20358;-69
2022/11/10 05:18:27;;;;;;;19.60;3.72;;;10.80;99.90;;;;;;5108531;28;20032;-69
2022/11/10 05:20:53;;;;;;;21.75;4.43;;;10.70;99.90;;;;;;5092253;28;20387;-70
2022/11/10 05:23:38;;;;;;;20.52;4.30;;;10.70;99.90;;;;;;5105773;28;20028;-69
2022/11/10 05:26:15;;;;;;;17.58;3.28;;;10.70;99.90;;;;;;5105064;28;20033;-69
2022/11/10 05:28:43;;;;;;;18.65;3.60;;;10.70;99.90;;;;;;5105798;28;20539;-70
2022/11/10 05:31:09;;;;;;;26.58;4.50;;;10.70;99.90;;;;;;5102639;28;20484;-70
2022/11/10 05:33:36;;;;;;;27.63;3.92;;;10.70;99.90;;;;;;5107911;28;20407;-69
2022/11/10 05:36:04;;;;;;;18.60;4.05;;;10.70;99.90;;;;;;5108303;28;20034;-69
2022/11/10 05:38:30;;;;;;;17.95;4.13;;;10.70;99.90;;;;;;5109879;28;20483;-69
2022/11/10 05:40:56;;;;;;;20.25;3.63;;;10.70;99.90;;;;;;5111321;28;20024;-70
2022/11/10 05:43:22;;;;;;;20.42;4.40;;;10.70;99.90;;;;;;5102153;28;20371;-69
2022/11/10 05:45:47;;;;;;;18.52;4.32;;;10.70;99.90;;;;;;5106160;28;20027;-70
2022/11/10 05:48:13;;;;;;;18.95;4.75;;;10.70;99.90;;;;;;5104197;27;20381;-70
2022/11/10 05:50:39;;;;;;;17.55;3.85;;;10.70;99.90;;;;;;5102353;28;20032;-69
2022/11/10 05:53:04;;;;;;;18.38;3.38;;;10.60;99.90;;;;;;5104296;28;20399;-69
2022/11/10 05:55:30;;;;;;;15.23;3.70;;;10.60;99.90;;;;;;5108879;28;20036;-69
2022/11/10 05:57:57;;;;;;;14.25;3.85;;;10.50;99.90;;;;;;5102300;28;20042;-70
2022/11/10 06:00:27;;;;;;;18.13;3.30;;;10.60;99.90;;;;;;5105630;28;20430;-70
2022/11/10 06:03:00;;;;;;;18.02;4.05;;;10.70;99.90;;;;;;5105202;27;20497;-70
2022/11/10 06:05:28;;;;;;;19.08;3.95;;;10.60;99.90;;;;;;5101671;28;20028;-70
2022/11/10 06:07:54;;;;;;;19.52;3.75;;;10.60;99.90;;;;;;5105064;28;20654;-70
2022/11/10 06:10:20;;;;;;;13.32;3.70;;;10.50;99.90;;;;;;5107155;28;20036;-70
2022/11/10 06:12:45;;;;;;;14.43;3.58;;;10.50;99.90;;;;;;5106721;28;20468;-70
2022/11/10 06:15:12;;;;;;;19.60;3.63;;;10.50;99.90;;;;;;5109397;28;20069;-70
2022/11/10 06:17:37;;;;;;;24.83;4.25;;;10.50;99.90;;;;;;5103358;28;20019;-69
2022/11/10 06:20:03;;;;;;;15.90;3.47;;;10.40;99.90;;;;;;5107167;28;20039;-70
2022/11/10 06:22:29;;;;;;;15.35;4.10;;;10.50;99.90;;;;;;5099703;28;20024;-70
2022/11/10 06:24:55;;;;;;;20.48;4.07;;;10.50;99.90;;;;;;5106288;28;20031;-70
2022/11/10 06:27:20;;;;;;;15.25;4.38;;;10.60;99.90;;;;;;5104463;28;20563;-70
2022/11/10 06:29:46;;;;;;;20.33;3.40;;;10.50;99.90;;;;;;5104950;28;20039;-69
2022/11/10 06:32:11;;;;;;;26.30;4.63;;;10.50;99.90;;;;;;5109044;28;20069;-69
2022/11/10 06:34:37;;;;;;;23.30;4.15;;;10.50;99.90;;;;;;5102026;28;20047;-70
2022/11/10 06:37:03;;;;;;;20.63;3.85;;;10.50;99.90;;;;;;5103247;28;20028;-70
2022/11/10 06:39:28;;;;;;;11.90;3.13;;;10.50;99.90;;;;;;5105725;28;20016;-70
2022/11/10 06:41:54;;;;;;;14.25;4.05;;;10.50;99.90;;;;;;5091487;28;20514;-70
2022/11/10 06:44:20;;;;;;;21.60;4.20;;;10.50;99.90;;;;;;5108514;28;20144;-70
2022/11/10 06:46:45;;;;;;;13.57;3.10;;;10.50;99.90;;;;;;5100336;28;20027;-70
2022/11/10 06:49:11;;;;;;;17.30;3.80;;;10.50;99.90;;;;;;5101526;28;20047;-70
2022/11/10 06:51:36;;;;;;;12.88;3.10;;;10.50;99.90;;;;;;5107643;28;20365;-70
2022/11/10 06:54:02;;;;;;;15.80;3.13;;;10.40;99.90;;;;;;5105939;28;20087;-69
2022/11/10 06:56:28;;;;;;;20.48;4.13;;;10.50;99.90;;;;;;5100318;28;20023;-70
2022/11/10 06:58:53;;;;;;;12.70;3.40;;;10.40;99.90;;;;;;5107214;28;20016;-70
2022/11/10 07:01:20;;;;;;;15.65;3.58;;;10.50;99.90;;;;;;5082981;28;20024;-70
2022/11/10 07:03:46;;;;;;;19.52;3.65;;;10.50;99.90;;;;;;5107895;28;20022;-70
2022/11/10 07:06:11;;;;;;;21.52;3.17;;;10.40;99.90;;;;;;5101625;28;20028;-70
2022/11/10 07:08:37;;;;;;;24.25;3.88;;;10.40;99.90;;;;;;5101650;28;20462;-69
2022/11/10 07:11:02;;;;;;;17.70;3.10;;;10.40;99.90;;;;;;5105457;28;20035;-70
2022/11/10 07:13:28;;;;;;;21.92;3.78;;;10.40;99.90;;;;;;5102709;28;20020;-70
2022/11/10 07:15:53;;;;;;;16.35;3.40;;;10.30;99.90;;;;;;5109668;28;20147;-70
2022/11/10 07:18:19;;;;;;;20.30;3.45;;;10.30;99.90;;;;;;5101540;28;20844;-69
2022/11/10 07:20:45;;;;;;;13.52;3.10;;;10.40;99.90;;;;;;5102218;28;20357;-69
2022/11/10 07:23:11;;;;;;;21.13;3.53;;;10.40;99.90;;;;;;5096395;28;20059;-70
2022/11/10 07:25:36;;;;;;;18.77;3.80;;;10.30;99.90;;;;;;5105699;28;20051;-69
2022/11/10 07:28:07;;;;;;;17.45;3.60;;;10.40;99.90;;;;;;5100077;28;20503;-71
2022/11/10 07:30:34;;;;;;;17.15;3.65;;;10.30;99.90;;;;;;5112100;28;20430;-69
2022/11/10 07:33:09;;;;;;;16.80;3.47;;;10.40;99.90;;;;;;5111778;27;20024;-70
2022/11/10 07:35:35;;;;;;;22.95;3.58;;;10.30;99.90;;;;;;5105105;28;20539;-70
2022/11/10 07:38:12;;;;;;;18.25;3.97;;;10.40;99.90;;;;;;5100320;28;20112;-68
2022/11/10 07:40:38;;;;;;;24.55;4.63;;;10.40;99.90;;;;;;5105954;28;20425;-69
2022/11/10 07:43:04;;;;;;;16.30;4.35;;;10.40;99.90;;;;;;5104301;28;20099;-69
2022/11/10 07:45:30;;;;;;;16.73;3.63;;;10.40;99.90;;;;;;5113088;27;20030;-69
2022/11/10 07:48:04;;;;;;;23.92;4.60;;;10.50;99.90;;;;;;5102544;28;20020;-69
2022/11/10 07:50:32;;;;;;;23.27;4.75;;;10.40;99.90;;;;;;5093806;28;20468;-69
2022/11/10 07:53:06;;;;;;;21.45;4.47;;;10.50;99.90;;;;;;5090677;28;20035;-69
2022/11/10 07:55:33;;;;;;;21.10;4.32;;;10.50;99.90;;;;;;5106226;28;20038;-69
2022/11/10 07:57:59;;;;;;;32.22;4.97;;;10.50;99.90;;;;;;5103813;28;20028;-69
2022/11/10 08:00:25;;;;;;;17.20;3.25;;;10.50;99.90;;;;;;5104995;28;20087;-70
2022/11/10 08:02:51;;;;;;;18.60;4.13;;;10.50;99.90;;;;;;5107965;28;20036;-69
2022/11/10 08:05:18;;;;;;;27.50;4.93;;;10.50;99.90;;;;;;5104365;28;20042;-69
2022/11/10 08:07:43;;;;;;;17.77;3.83;;;10.50;99.90;;;;;;5112687;28;20030;-70
2022/11/10 08:10:09;;;;;;;23.27;4.47;;;10.60;99.90;;;;;;5106103;28;20035;-70
2022/11/10 08:12:35;;;;;;;19.60;4.68;;;10.60;99.90;;;;;;5108265;28;20456;-69
2022/11/10 08:15:01;;;;;;;21.70;4.10;;;10.70;99.90;;;;;;5104794;28;20110;-70
2022/11/10 08:17:26;;;;;;;19.42;3.53;;;10.60;99.90;;;;;;5106903;28;20024;-70
2022/11/10 08:19:53;;;;;;;16.00;4.25;;;10.70;99.90;;;;;;5107590;27;20695;-70
2022/11/10 08:22:19;;;;;;;20.77;4.25;;;10.70;99.90;;;;;;5106453;28;20073;-70
2022/11/10 08:24:44;;;;;;;17.85;3.95;;;10.70;99.90;;;;;;5108669;28;20063;-69
2022/11/10 08:27:10;;;;;;;15.40;3.45;;;10.80;99.90;;;;;;5104175;28;20020;-69
2022/11/10 08:29:35;;;;;;;19.40;4.05;;;10.90;99.90;;;;;;5109133;28;20156;-69
2022/11/10 08:32:01;;;;;;;16.23;3.50;;;10.90;99.90;;;;;;5111158;28;20486;-69
2022/11/10 08:34:27;;;;;;;22.40;4.13;;;10.90;99.90;;;;;;5109850;28;20082;-70
2022/11/10 08:36:52;;;;;;;13.15;3.47;;;11.00;99.90;;;;;;5106688;28;20533;-70
2022/11/10 08:39:18;;;;;;;22.08;4.82;;;11.00;99.90;;;;;;5102017;28;20034;-69
2022/11/10 08:41:44;;;;;;;16.38;3.55;;;11.20;99.90;;;;;;5106525;28;20024;-71
2022/11/10 08:44:09;;;;;;;16.23;4.00;;;11.20;99.90;;;;;;5089926;28;20032;-70
2022/11/10 08:46:35;;;;;;;18.38;3.97;;;11.20;99.90;;;;;;5104967;28;20442;-70
2022/11/10 08:49:00;;;;;;;19.70;3.85;;;11.20;99.90;;;;;;5108186;28;20506;-71
2022/11/10 08:51:26;;;;;;;20.67;3.45;;;11.30;99.90;;;;;;5105067;28;20051;-70
2022/11/10 08:53:51;;;;;;;16.48;4.00;;;11.30;99.90;;;;;;5103079;28;20066;-71
2022/11/10 08:56:17;;;;;;;19.10;3.95;;;11.40;99.90;;;;;;5106079;28;20072;-70
2022/11/10 08:58:43;;;;;;;23.45;4.63;;;11.40;99.90;;;;;;5102426;28;20020;-70
2022/11/10 09:01:10;;;;;;;18.85;4.18;;;11.50;99.90;;;;;;5103911;28;20024;-70
2022/11/10 09:03:36;;;;;;;20.00;4.38;;;11.50;99.90;;;;;;5106081;28;20023;-70
2022/11/10 09:06:02;;;;;;;22.75;3.60;;;11.60;99.90;;;;;;5103931;28;20456;-70
2022/11/10 09:08:29;;;;;;;19.30;4.05;;;11.70;99.90;;;;;;5113262;28;20489;-70
2022/11/10 09:10:55;;;;;;;16.95;4.05;;;11.70;99.90;;;;;;5111533;28;20020;-70
2022/11/10 09:13:20;;;;;;;19.95;4.10;;;11.80;99.90;;;;;;5105832;28;20380;-71
2022/11/10 09:15:46;;;;;;;19.05;4.22;;;11.80;99.90;;;;;;5102911;28;20035;-69
2022/11/10 09:18:14;;;;;;;17.73;4.20;;;11.90;99.90;;;;;;5104585;28;20433;-71
2022/11/10 09:20:40;;;;;;;18.20;4.65;;;12.00;99.90;;;;;;5108421;28;20468;-71
2022/11/10 09:23:09;;;;;;;25.55;4.80;;;12.00;99.90;;;;;;5109230;28;20455;-71
2022/11/10 09:25:35;;;;;;;21.65;3.70;;;12.10;99.90;;;;;;5109460;28;20022;-72
2022/11/10 09:28:01;;;;;;;15.30;3.50;;;12.30;99.90;;;;;;5092111;28;20020;-71
2022/11/10 09:30:27;;;;;;;19.48;4.63;;;12.40;99.90;;;;;;5088108;28;20031;-71
2022/11/10 09:32:53;;;;;;;13.23;3.35;;;12.50;99.90;;;;;;5110717;28;20018;-71
2022/11/10 09:35:19;;;;;;;18.65;4.15;;;12.50;99.90;;;;;;5093135;28;20023;-70
2022/11/10 09:37:45;;;;;;;21.85;4.32;;;12.60;99.90;;;;;;5105986;27;20028;-70
2022/11/10 09:40:53;;;;;;;15.98;3.70;;;12.70;99.90;;;;;;5105610;28;20460;-71
2022/11/10 09:43:58;;;;;;;19.77;3.78;;;12.80;99.90;;;;;;5107764;28;20034;-70
2022/11/10 09:46:27;;;;;;;19.17;3.60;;;12.90;99.90;;;;;;5103873;28;20076;-70
2022/11/10 09:49:22;;;;;;;20.65;3.90;;;13.00;99.90;;;;;;5102052;28;20043;-69
2022/11/10 09:51:50;;;;;;;22.13;3.55;;;13.10;99.90;;;;;;5098265;27;20043;-70
2022/11/10 09:54:27;;;;;;;22.45;3.67;;;13.20;99.90;;;;;;5100982;28;20023;-69
2022/11/10 09:56:59;;;;;;;13.10;3.15;;;13.20;99.90;;;;;;5108126;28;20028;-70
2022/11/10 09:59:31;;;;;;;18.55;3.58;;;13.30;99.90;;;;;;5100360;28;20429;-70
2022/11/10 10:02:23;;;;;;;13.82;3.13;;;13.30;99.90;;;;;;5107211;28;20081;-69
2022/11/10 10:05:16;;;;;;;15.65;3.33;;;13.50;99.90;;;;;;5102332;28;20797;-69
2022/11/10 10:07:48;;;;;;;;;;;13.50;99.90;;;;;;5083884;28;20042;-69
2022/11/10 10:10:29;;;;;;;14.93;3.08;;;13.60;99.90;;;;;;5100970;28;19912;-68
2022/11/10 10:13:22;;;;;;;14.43;3.40;;;13.70;99.90;;;;;;5103994;28;20024;-69
2022/11/10 10:16:09;;;;;;;11.57;3.17;;;13.80;99.90;;;;;;5093564;28;20028;-69
2022/11/10 10:18:53;;;;;;;18.88;3.92;;;13.80;99.90;;;;;;5096256;28;20028;-70
2022/11/10 10:21:27;;;;;;;10.23;3.03;;;13.90;99.90;;;;;;5107979;28;20096;-70
2022/11/10 10:23:57;;;;;;;19.75;3.55;;;14.00;99.90;;;;;;5107778;28;20024;-71
2022/11/10 10:26:27;;;;;;;9.35;3.10;;;14.00;99.90;;;;;;5102941;28;20111;-70
2022/11/10 10:28:54;;;;;;;7.75;2.95;;;14.00;99.90;;;;;;5099526;28;20403;-71
2022/11/10 10:31:37;;;;;;;11.60;2.88;;;14.10;99.90;;;;;;5095970;28;20028;-70
2022/11/10 10:34:03;;;;;;;15.48;3.92;;;14.10;99.90;;;;;;5109588;28;20112;-70
2022/11/10 10:36:30;;;;;;;10.18;2.88;;;14.20;99.90;;;;;;5107415;28;20589;-68
2022/11/10 10:39:06;;;;;;;10.07;2.35;;;14.20;99.90;;;;;;5098402;28;20404;-70
2022/11/10 10:41:35;;;;;;;14.32;2.88;;;14.20;99.90;;;;;;5106291;28;20027;-70
2022/11/10 10:44:08;;;;;;;14.18;2.85;;;14.30;99.90;;;;;;5099831;28;20020;-70
2022/11/10 10:46:49;;;;;;;10.77;2.80;;;14.30;99.90;;;;;;5106039;28;20099;-71
2022/11/10 10:49:26;;;;;;;15.93;3.30;;;14.30;99.90;;;;;;5102930;28;20036;-71
2022/11/10 10:52:10;;;;;;;12.93;2.40;;;14.40;99.90;;;;;;5099201;28;20032;-70
2022/11/10 10:54:37;;;;;;;10.65;2.33;;;14.50;99.90;;;;;;5104324;28;20019;-69
2022/11/10 10:57:21;;;;;;;10.32;3.22;;;14.50;99.90;;;;;;5100605;28;20526;-70
2022/11/10 10:59:48;;;;;;;13.02;2.55;;;14.50;99.90;;;;;;5106335;28;20028;-69
2022/11/10 11:02:25;;;;;;;13.20;2.85;;;14.60;99.90;;;;;;5100930;28;20373;-68
2022/11/10 11:05:08;;;;;;;11.82;2.38;;;14.70;99.90;;;;;;5109776;28;20027;-71
2022/11/10 11:07:33;;;;;;;9.27;2.40;;;14.70;99.90;;;;;;5110357;28;20020;-68
2022/11/10 11:10:00;;;;;;;7.78;2.00;;;14.70;99.90;;;;;;5104873;28;20082;-68
2022/11/10 11:12:28;;;;;;;14.07;2.40;;;14.70;99.90;;;;;;5107440;28;20016;-68
2022/11/10 11:15:21;;;;;;;12.25;2.10;;;14.80;99.90;;;;;;5104928;28;20515;-69
2022/11/10 11:17:57;;;;;;;15.05;2.15;;;14.80;99.90;;;;;;5109805;28;20091;-70
2022/11/10 11:21:05;;;;;;;10.32;2.00;;;14.80;99.90;;;;;;5104522;28;20058;-69
2022/11/10 11:23:55;;;;;;;16.80;2.42;;;14.90;99.90;;;;;;5105641;28;20110;-69
2022/11/10 11:26:40;;;;;;;10.38;2.47;;;14.90;99.90;;;;;;5089935;28;20493;-69
2022/11/10 11:29:23;;;;;;;15.40;2.53;;;14.90;99.90;;;;;;5087541;28;20563;-70
2022/11/10 11:32:05;;;;;;;12.48;1.98;;;15.00;99.90;;;;;;5105504;28;20088;-70
2022/11/10 11:34:38;;;;;;;11.90;2.05;;;15.00;99.90;;;;;;5107004;28;20460;-70
2022/11/10 11:37:18;;;;;;;8.57;1.90;;;15.00;99.90;;;;;;5109514;28;20030;-71
2022/11/10 11:39:55;;;;;;;11.05;2.60;;;15.00;99.90;;;;;;5097464;27;20043;-69
2022/11/10 11:42:36;;;;;;;9.98;1.70;;;15.00;99.90;;;;;;5107367;28;20019;-69
2022/11/10 11:45:15;;;;;;;14.77;2.05;;;15.10;99.90;;;;;;5109338;28;20035;-70
2022/11/10 11:47:57;;;;;;;11.90;3.03;;;15.10;99.90;;;;;;5108293;28;20024;-71
2022/11/10 11:50:52;;;;;;;12.90;2.17;;;15.20;99.90;;;;;;5105365;28;20054;-70
2022/11/10 11:53:30;;;;;;;10.00;2.00;;;15.20;99.90;;;;;;5107096;28;20103;-70
2022/11/10 11:56:12;;;;;;;5.65;1.48;;;15.30;99.90;;;;;;5111513;28;20016;-71
2022/11/10 11:58:53;;;;;;;11.50;2.33;;;15.30;99.90;;;;;;5105223;28;20466;-71
2022/11/10 12:01:38;;;;;;;8.00;2.03;;;15.40;99.90;;;;;;5111093;28;20026;-71
2022/11/10 12:04:33;;;;;;;10.10;2.08;;;15.30;99.90;;;;;;5106909;28;20586;-70
2022/11/10 12:07:34;;;;;;;7.68;1.77;;;15.40;99.90;;;;;;5106192;28;20551;-71
2022/11/10 12:10:33;;;;;;;10.63;2.13;;;15.40;99.90;;;;;;5106592;28;20118;-70
2022/11/10 12:13:06;;;;;;;9.85;1.90;;;15.40;99.90;;;;;;5109793;28;20027;-71
2022/11/10 12:15:45;;;;;;;10.90;2.30;;;15.40;99.90;;;;;;5101738;28;20478;-71
2022/11/10 12:18:26;;;;;;;7.35;1.77;;;15.30;99.90;;;;;;5100482;28;20036;-71
2022/11/10 12:21:10;;;;;;;7.65;2.00;;;15.30;99.90;;;;;;5087655;28;20395;-71
2022/11/10 12:24:10;;;;;;;11.52;3.05;;;15.30;99.90;;;;;;5097914;28;20131;-71
2022/11/10 12:26:41;;;;;;;10.80;1.98;;;15.30;99.90;;;;;;5084602;28;20032;-72
2022/11/10 12:29:35;;;;;;;6.63;1.80;;;15.40;99.90;;;;;;5096114;28;20462;-71
2022/11/10 12:32:23;;;;;;;10.18;1.83;;;15.40;99.90;;;;;;5098961;28;20220;-71
2022/11/10 12:35:14;;;;;;;8.35;1.88;;;15.50;99.90;;;;;;5096459;28;20058;-71
2022/11/10 12:38:04;;;;;;;8.52;1.90;;;15.50;99.90;;;;;;5093502;28;20028;-68
2022/11/10 12:40:36;;;;;;;12.70;1.92;;;15.60;99.90;;;;;;5094869;28;20027;-68
2022/11/10 12:43:06;;;;;;;11.00;2.03;;;15.50;99.90;;;;;;5100580;28;20056;-69
2022/11/10 12:45:42;;;;;;;5.50;1.67;;;15.50;99.90;;;;;;5095453;27;20020;-69
2022/11/10 12:48:13;;;;;;;7.97;1.85;;;15.50;99.90;;;;;;5097048;28;20461;-69
2022/11/10 12:50:57;;;;;;;5.93;1.45;;;15.40;99.90;;;;;;5095832;28;20123;-69
2022/11/10 12:53:31;;;;;;;10.85;1.98;;;15.40;99.90;;;;;;5093814;28;20062;-69
2022/11/10 12:56:32;;;;;;;8.50;1.98;;;15.40;99.90;;;;;;5092589;28;20123;-69
2022/11/10 12:59:20;;;;;;;9.48;1.95;;;15.30;99.90;;;;;;5077718;28;20027;-68
2022/11/10 13:01:49;;;;;;;10.02;1.80;;;15.30;99.90;;;;;;5092268;28;20024;-68
2022/11/10 13:04:17;;;;;;;7.85;1.70;;;15.40;99.90;;;;;;5094477;28;20617;-80